Time;durP1;ratioP1;P1;durP2;ratioP2;P2;SDS_P1;SDS_P2;PMS_P1;PMS_P2;Temp;Humidity;BMP_temperature;BMP_pressure;BME280_temperature;BME280_humidity;BME280_pressure;Samples;Min_cycle;Max_cycle;Signal;HPM_P1;HPM_P2
2022/11/06 00:00:16;;;;;;;5.13;2.83;;;;;;;;;;5052612;28;20044;-64
2022/11/06 00:18:18;;;;;;;25.80;3.30;;;;;;;;;;5143207;27;20542;-64
2022/11/06 00:20:45;;;;;;;5.37;3.00;;;;;;;;;;5051259;27;2011359;-64
2022/11/06 00:23:11;;;;;;;5.75;3.78;;;;;;;;;;5103204;28;20020;-64
2022/11/06 00:25:41;;;;;;;4.60;2.65;;;;;;;;;;5102608;28;20452;-64
2022/11/06 00:28:08;;;;;;;5.30;3.00;;;;;;;;;;5104146;28;20087;-66
2022/11/06 00:30:34;;;;;;;7.55;4.10;;;;;;;;;;5109493;28;20031;-64
2022/11/06 00:33:01;;;;;;;6.65;3.63;;;;;;;;;;5109384;28;20020;-64
2022/11/06 00:35:28;;;;;;;7.70;3.55;;;;;;;;;;5109221;28;20028;-65
2022/11/06 00:37:55;;;;;;;4.00;2.92;;;;;;;;;;5109373;28;20492;-64
2022/11/06 00:40:21;;;;;;;8.32;2.85;;;;;;;;;;5108655;28;20374;-64
2022/11/06 00:42:48;;;;;;;8.43;4.25;;;;;;;;;;5103103;28;20055;-64
2022/11/06 00:45:14;;;;;;;6.35;3.38;;;;;;;;;;5104085;28;20028;-65
2022/11/06 00:47:41;;;;;;;4.75;3.22;;;;;;;;;;5103604;28;20028;-64
2022/11/06 00:50:08;;;;;;;6.30;3.28;;;;;;;;;;5103261;28;20027;-65
2022/11/06 00:52:34;;;;;;;17.48;4.00;;;;;;;;;;5108296;28;20355;-65
2022/11/06 00:55:01;;;;;;;14.35;4.70;;;;;;;;;;5109114;28;20474;-64
2022/11/06 00:57:28;;;;;;;5.28;3.30;;;;;;;;;;5108834;28;20027;-64
2022/11/06 00:59:54;;;;;;;9.40;4.40;;;;;;;;;;5108337;28;20028;-64
2022/11/06 01:02:21;;;;;;;6.30;4.10;;;;;;;;;;5108530;28;20077;-64
2022/11/06 01:04:48;;;;;;;6.03;4.30;;;;;;;;;;5104113;28;20055;-66
2022/11/06 01:07:14;;;;;;;6.87;4.27;;;;;;;;;;5103639;28;20032;-64
2022/11/06 01:09:41;;;;;;;7.03;4.17;;;;;;;;;;5103243;28;20024;-64
2022/11/06 01:12:08;;;;;;;8.00;4.70;;;;;;;;;;5103254;28;20028;-64
2022/11/06 01:14:34;;;;;;;3.77;3.00;;;;;;;;;;5106769;28;20027;-64
2022/11/06 01:17:01;;;;;;;6.97;3.60;;;;;;;;;;5108000;28;20111;-64
2022/11/06 01:19:27;;;;;;;4.80;3.20;;;;;;;;;;5093210;28;20031;-65
2022/11/06 01:21:54;;;;;;;5.53;3.43;;;;;;;;;;5094784;28;20040;-65
2022/11/06 01:24:26;;;;;;;6.80;3.63;;;;;;;;;;5094988;28;20230;-64
2022/11/06 01:26:53;;;;;;;3.50;2.23;;;;;;;;;;5090351;28;20077;-64
2022/11/06 01:29:19;;;;;;;7.07;3.50;;;;;;;;;;5089432;28;20082;-64
2022/11/06 01:31:49;;;;;;;6.40;3.40;;;;;;;;;;5088868;28;20024;-64
2022/11/06 01:34:16;;;;;;;4.00;3.27;;;;;;;;;;5089263;28;20020;-64
2022/11/06 01:36:42;;;;;;;7.20;3.87;;;;;;;;;;5091709;28;20031;-65
2022/11/06 01:39:11;;;;;;;5.87;3.43;;;;;;;;;;5094492;28;20020;-63
2022/11/06 01:41:46;;;;;;;3.77;3.00;;;;;;;;;;5094466;28;20016;-64
2022/11/06 01:44:31;;;;;;;5.20;2.78;;;;;;;;;;5094600;28;20032;-65
2022/11/06 01:46:57;;;;;;;;;;;;;;;;;;5089013;28;20047;-63
2022/11/06 01:49:24;;;;;;;3.80;2.77;;;;;;;;;;5089716;28;19911;-64
2022/11/06 01:51:53;;;;;;;6.27;3.27;;;;;;;;;;5088336;28;20433;-64
2022/11/06 01:54:21;;;;;;;3.60;2.93;;;;;;;;;;5088795;28;20397;-64
2022/11/06 01:56:49;;;;;;;3.50;2.70;;;;;;;;;;5088247;28;20370;-64
2022/11/06 01:59:17;;;;;;;4.83;3.43;;;;;;;;;;5091613;28;20020;-64
2022/11/06 02:01:44;;;;;;;6.67;3.83;;;;;;;;;;5094149;28;20020;-63
2022/11/06 02:04:31;;;;;;;5.13;3.37;;;;;;;;;;5093164;28;20028;-62
2022/11/06 02:06:58;;;;;;;6.70;3.73;;;;;;;;;;5094031;28;20043;-63
2022/11/06 02:09:25;;;;;;;6.03;3.60;;;;;;;;;;5093694;28;20107;-63
2022/11/06 02:11:54;;;;;;;9.70;3.53;;;;;;;;;;5088221;28;20039;-62
2022/11/06 02:14:24;;;;;;;7.77;4.00;;;;;;;;;;5088528;28;20124;-62
2022/11/06 02:17:02;;;;;;;8.23;3.83;;;;;;;;;;5087213;28;20440;-62
2022/11/06 02:19:35;;;;;;;5.23;3.53;;;;;;;;;;5088197;28;20055;-62
2022/11/06 02:22:20;;;;;;;6.80;3.97;;;;;;;;;;5091918;28;20054;-62
2022/11/06 02:24:46;;;;;;;;;;;;;;;;;;5093413;28;20028;-62
2022/11/06 02:27:14;;;;;;;5.60;3.27;;;;;;;;;;5093916;28;19991;-62
2022/11/06 02:29:41;;;;;;;5.40;4.20;;;;;;;;;;5092501;28;20031;-63
2022/11/06 02:32:11;;;;;;;8.83;4.17;;;;;;;;;;5093069;28;20404;-62
2022/11/06 02:34:39;;;;;;;12.03;4.17;;;;;;;;;;5088180;28;20359;-62
2022/11/06 02:37:12;;;;;;;9.90;3.87;;;;;;;;;;5088063;28;20032;-62
2022/11/06 02:39:40;;;;;;;5.93;3.83;;;;;;;;;;5087409;28;20500;-62
2022/11/06 02:42:09;;;;;;;7.33;4.50;;;;;;;;;;5087959;28;20584;-62
2022/11/06 02:44:36;;;;;;;4.10;3.17;;;;;;;;;;5092150;28;20012;-62
2022/11/06 02:47:07;;;;;;;7.30;4.60;;;;;;;;;;5093367;28;20032;-62
2022/11/06 02:49:37;;;;;;;4.40;3.47;;;;;;;;;;5092580;28;20016;-63
2022/11/06 02:52:28;;;;;;;4.40;3.10;;;;;;;;;;5084038;28;20510;-62
2022/11/06 02:54:58;;;;;;;4.07;3.20;;;;;;;;;;5080918;28;20036;-62
2022/11/06 02:57:26;;;;;;;4.97;3.30;;;;;;;;;;5087528;28;20031;-62
2022/11/06 03:00:05;;;;;;;5.13;3.40;;;;;;;;;;5087418;28;20024;-62
2022/11/06 03:02:41;;;;;;;5.00;3.50;;;;;;;;;;5087304;28;20115;-62
2022/11/06 03:05:11;;;;;;;5.33;3.20;;;;;;;;;;5088038;28;20532;-62
2022/11/06 03:07:40;;;;;;;4.23;3.30;;;;;;;;;;5092755;28;20039;-62
2022/11/06 03:10:07;;;;;;;6.50;3.83;;;;;;;;;;5092909;28;20024;-62
2022/11/06 03:12:39;;;;;;;6.93;3.83;;;;;;;;;;5092856;28;20054;-62
2022/11/06 03:15:20;;;;;;;4.67;3.53;;;;;;;;;;5092793;28;20486;-62
2022/11/06 03:17:52;;;;;;;10.33;3.90;;;;;;;;;;5091016;28;20047;-62
2022/11/06 03:20:19;;;;;;;6.17;3.97;;;;;;;;;;5087144;28;20355;-62
2022/11/06 03:23:03;;;;;;;5.20;3.33;;;;;;;;;;5086842;28;20028;-62
2022/11/06 03:25:42;;;;;;;4.33;3.20;;;;;;;;;;5086942;28;20039;-61
2022/11/06 03:28:11;;;;;;;2.33;1.97;;;;;;;;;;5088313;28;20024;-62
2022/11/06 03:30:42;;;;;;;4.27;3.20;;;;;;;;;;5092855;28;20028;-62
2022/11/06 03:33:12;;;;;;;5.30;4.10;;;;;;;;;;5092338;28;20052;-62
2022/11/06 03:35:53;;;;;;;9.43;3.40;;;;;;;;;;5092565;28;20484;-63
2022/11/06 03:38:25;;;;;;;2.67;2.20;;;;;;;;;;5091988;28;20026;-63
2022/11/06 03:40:53;;;;;;;3.53;2.93;;;;;;;;;;5089597;28;20024;-62
2022/11/06 03:43:22;;;;;;;3.87;2.73;;;;;;;;;;5086513;28;20116;-62
2022/11/06 03:45:51;;;;;;;5.37;3.17;;;;;;;;;;5086539;28;20028;-62
2022/11/06 03:48:36;;;;;;;5.53;3.50;;;;;;;;;;5086228;28;20073;-63
2022/11/06 03:51:15;;;;;;;3.22;2.25;;;;;;;;;;5089847;28;20032;-63
2022/11/06 03:53:54;;;;;;;4.37;3.13;;;;;;;;;;5089038;28;20367;-62
2022/11/06 03:56:26;;;;;;;4.50;3.07;;;;;;;;;;5072275;28;20111;-62
2022/11/06 03:58:53;;;;;;;5.07;3.50;;;;;;;;;;5072225;28;20080;-62
2022/11/06 04:01:23;;;;;;;3.50;2.23;;;;;;;;;;5072316;28;20020;-62
2022/11/06 04:04:02;;;;;;;3.83;2.53;;;;;;;;;;5068105;28;20041;-63
2022/11/06 04:06:29;;;;;;;5.10;2.47;;;;;;;;;;5075118;28;20478;-62
2022/11/06 04:14:31;;;;;;;5.33;2.63;;;;;;;;;;5092140;28;20054;-63
2022/11/06 04:17:02;;;;;;;3.93;2.60;;;;;;;;;;5092138;28;20382;-62
2022/11/06 04:19:29;;;;;;;3.30;1.70;;;;;;;;;;5092197;28;20024;-63
2022/11/06 04:22:01;;;;;;;4.40;1.93;;;;;;;;;;5091386;28;20380;-63
2022/11/06 04:27:37;;;;;;;3.10;1.97;;;;;;;;;;5086056;28;20444;-62
2022/11/06 04:30:04;;;;;;;;;;;;;;;;;;5066954;28;20039;-62
2022/11/06 04:32:33;;;;;;;2.20;1.73;;;;;;;;;;5068269;28;19931;-62
2022/11/06 04:35:07;;;;;;;2.10;1.60;;;;;;;;;;5087189;28;20024;-62
2022/11/06 04:37:45;;;;;;;5.03;3.17;;;;;;;;;;5091715;28;20099;-62
2022/11/06 04:40:16;;;;;;;3.10;2.33;;;;;;;;;;5091784;28;20032;-62
2022/11/06 04:43:03;;;;;;;5.97;3.30;;;;;;;;;;5091354;28;20374;-62
2022/11/06 04:45:38;;;;;;;7.47;3.60;;;;;;;;;;5091555;28;20532;-63
2022/11/06 04:48:06;;;;;;;6.43;3.77;;;;;;;;;;5087924;28;20032;-63
2022/11/06 04:50:35;;;;;;;5.07;3.70;;;;;;;;;;5086280;28;20026;-62
2022/11/06 04:53:03;;;;;;;7.13;3.03;;;;;;;;;;5087199;28;20021;-62
2022/11/06 04:55:30;;;;;;;7.50;4.33;;;;;;;;;;5089561;28;20020;-61
2022/11/06 04:57:56;;;;;;;5.27;2.70;;;;;;;;;;5092154;28;20017;-62
2022/11/06 05:00:23;;;;;;;5.97;3.53;;;;;;;;;;5095044;28;20745;-62
2022/11/06 05:02:50;;;;;;;5.73;4.20;;;;;;;;;;5095297;28;20067;-63
2022/11/06 05:05:16;;;;;;;7.83;3.47;;;;;;;;;;5095486;28;20032;-63
2022/11/06 05:07:43;;;;;;;5.37;2.50;;;;;;;;;;5095197;28;20036;-62
2022/11/06 05:10:10;;;;;;;3.17;2.60;;;;;;;;;;5092776;28;20039;-62
2022/11/06 05:12:36;;;;;;;7.40;4.70;;;;;;;;;;5089502;28;20055;-62
2022/11/06 05:15:03;;;;;;;5.10;3.23;;;;;;;;;;5089588;28;20035;-62
2022/11/06 05:17:30;;;;;;;2.87;2.33;;;;;;;;;;5089586;28;20498;-62
2022/11/06 05:19:56;;;;;;;2.43;1.93;;;;;;;;;;5090831;28;20099;-62
2022/11/06 05:25:08;;;;;;;4.00;2.83;;;;;;;;;;5094381;28;20070;-63
2022/11/06 05:27:35;;;;;;;3.63;2.47;;;;;;;;;;5094829;28;20040;-62
2022/11/06 05:30:02;;;;;;;3.70;2.47;;;;;;;;;;5095063;28;20028;-63
2022/11/06 05:32:29;;;;;;;3.40;2.93;;;;;;;;;;5092606;28;20031;-62
2022/11/06 05:34:56;;;;;;;8.53;3.93;;;;;;;;;;5088756;28;20094;-62
2022/11/06 05:37:23;;;;;;;7.23;4.27;;;;;;;;;;5088720;28;20478;-62
2022/11/06 05:39:50;;;;;;;4.80;3.57;;;;;;;;;;5089162;28;20081;-62
2022/11/06 05:42:16;;;;;;;3.93;3.03;;;;;;;;;;5090485;28;20023;-62
2022/11/06 05:44:43;;;;;;;1.97;1.63;;;;;;;;;;5094418;28;20087;-62
2022/11/06 05:47:10;;;;;;;5.07;2.70;;;;;;;;;;5094383;28;20060;-62
2022/11/06 05:49:36;;;;;;;4.77;2.63;;;;;;;;;;5094542;28;20027;-63
2022/11/06 05:52:03;;;;;;;4.73;2.67;;;;;;;;;;5094089;28;20020;-62
2022/11/06 05:54:30;;;;;;;5.53;3.57;;;;;;;;;;5092265;28;20557;-63
2022/11/06 05:56:56;;;;;;;3.17;2.50;;;;;;;;;;5088081;28;20035;-64
2022/11/06 05:59:23;;;;;;;8.60;2.33;;;;;;;;;;5089106;28;20584;-62
2022/11/06 06:01:50;;;;;;;5.23;2.80;;;;;;;;;;5088667;28;20020;-62
2022/11/06 06:04:16;;;;;;;3.13;2.17;;;;;;;;;;5088948;28;20025;-61
2022/11/06 06:06:43;;;;;;;3.07;2.33;;;;;;;;;;5093847;28;20029;-62
2022/11/06 06:09:10;;;;;;;9.47;3.63;;;;;;;;;;5093928;28;20028;-62
2022/11/06 06:11:37;;;;;;;3.13;2.37;;;;;;;;;;5093898;28;20024;-62
2022/11/06 06:14:03;;;;;;;3.57;2.73;;;;;;;;;;5093696;28;20020;-62
2022/11/06 06:16:30;;;;;;;4.03;3.23;;;;;;;;;;5093769;28;20023;-61
2022/11/06 06:18:57;;;;;;;3.87;2.60;;;;;;;;;;5072422;28;20056;-62
2022/11/06 06:21:23;;;;;;;8.57;4.53;;;;;;;;;;5088424;28;20020;-62
2022/11/06 06:23:50;;;;;;;3.87;2.67;;;;;;;;;;5088354;28;20497;-62
2022/11/06 06:26:17;;;;;;;2.13;1.63;;;;;;;;;;5087988;28;20082;-61
2022/11/06 06:28:43;;;;;;;5.03;2.97;;;;;;;;;;5092716;28;20024;-62
2022/11/06 06:31:10;;;;;;;3.33;2.17;;;;;;;;;;5093335;28;20110;-62
2022/11/06 06:33:37;;;;;;;5.43;3.47;;;;;;;;;;5093614;28;20028;-62
2022/11/06 06:36:07;;;;;;;6.03;3.80;;;;;;;;;;5093546;28;20431;-62
2022/11/06 06:38:34;;;;;;;3.47;2.57;;;;;;;;;;5093459;28;20032;-62
2022/11/06 06:41:01;;;;;;;5.40;3.23;;;;;;;;;;5088581;28;20024;-62
2022/11/06 06:43:28;;;;;;;7.67;2.67;;;;;;;;;;5086890;28;20081;-62
2022/11/06 06:45:58;;;;;;;3.57;2.40;;;;;;;;;;5083003;28;20161;-62
2022/11/06 06:48:24;;;;;;;5.23;2.70;;;;;;;;;;5086745;28;20028;-62
2022/11/06 06:50:51;;;;;;;7.63;3.13;;;;;;;;;;5091409;28;20120;-62
2022/11/06 06:53:18;;;;;;;7.07;3.33;;;;;;;;;;5083026;28;20024;-62
2022/11/06 06:55:44;;;;;;;5.13;3.43;;;;;;;;;;5093581;28;20031;-62
2022/11/06 06:58:11;;;;;;;3.33;2.73;;;;;;;;;;5088328;28;20024;-62
2022/11/06 07:00:38;;;;;;;4.00;3.00;;;;;;;;;;5093202;28;20043;-62
2022/11/06 07:03:04;;;;;;;5.97;3.03;;;;;;;;;;5077677;28;20024;-62
2022/11/06 07:05:31;;;;;;;3.83;3.07;;;;;;;;;;5065520;28;20799;-61
2022/11/06 07:07:58;;;;;;;3.20;2.27;;;;;;;;;;5068932;28;20037;-62
2022/11/06 07:10:24;;;;;;;5.17;2.80;;;;;;;;;;5081023;28;20177;-62
2022/11/06 07:12:51;;;;;;;3.63;2.83;;;;;;;;;;5089628;28;20028;-62
2022/11/06 07:15:18;;;;;;;5.20;3.30;;;;;;;;;;5091677;28;20028;-62
2022/11/06 07:17:44;;;;;;;4.77;3.23;;;;;;;;;;5091958;28;20098;-62
2022/11/06 07:20:11;;;;;;;4.33;3.27;;;;;;;;;;5092135;28;20016;-62
2022/11/06 07:22:38;;;;;;;4.90;3.37;;;;;;;;;;5092198;28;20119;-62
2022/11/06 07:25:05;;;;;;;3.50;3.10;;;;;;;;;;5088699;28;20028;-62
2022/11/06 07:27:32;;;;;;;4.43;3.70;;;;;;;;;;5086620;28;20359;-62
2022/11/06 07:29:59;;;;;;;4.47;3.73;;;;;;;;;;5086994;28;20504;-63
2022/11/06 07:32:26;;;;;;;4.00;3.20;;;;;;;;;;5070437;28;20478;-62
2022/11/06 07:34:52;;;;;;;5.17;3.63;;;;;;;;;;5089537;28;20103;-62
2022/11/06 07:37:19;;;;;;;3.53;2.50;;;;;;;;;;5092280;28;20476;-61
2022/11/06 07:39:46;;;;;;;1.90;1.70;;;;;;;;;;5091188;28;20440;-62
2022/11/06 07:42:12;;;;;;;6.63;2.60;;;;;;;;;;5091870;28;20024;-63
2022/11/06 07:44:39;;;;;;;5.13;3.03;;;;;;;;;;5091417;28;20028;-63
2022/11/06 07:47:06;;;;;;;2.63;1.97;;;;;;;;;;5088984;28;20079;-61
2022/11/06 07:49:32;;;;;;;5.13;3.13;;;;;;;;;;5086763;28;20035;-62
2022/11/06 07:51:59;;;;;;;5.70;3.43;;;;;;;;;;5086561;28;20054;-62
2022/11/06 07:54:25;;;;;;;4.97;3.17;;;;;;;;;;5086953;28;20095;-61
2022/11/06 07:56:52;;;;;;;2.70;2.23;;;;;;;;;;5088791;28;20016;-62
2022/11/06 07:59:19;;;;;;;4.43;3.43;;;;;;;;;;5091718;28;20076;-62
2022/11/06 08:01:45;;;;;;;7.87;3.53;;;;;;;;;;5091947;28;20060;-64
2022/11/06 08:04:12;;;;;;;6.17;2.97;;;;;;;;;;5092169;28;20032;-61
2022/11/06 08:06:39;;;;;;;4.27;2.57;;;;;;;;;;5092025;28;20071;-62
2022/11/06 08:09:06;;;;;;;2.97;2.60;;;;;;;;;;5090073;28;20028;-62
2022/11/06 08:11:33;;;;;;;4.37;3.80;;;;;;;;;;5086496;28;20028;-61
2022/11/06 08:14:00;;;;;;;3.37;2.47;;;;;;;;;;5070025;28;20028;-61
2022/11/06 08:16:27;;;;;;;3.63;2.93;;;;;;;;;;5086733;28;20360;-61
2022/11/06 08:18:54;;;;;;;6.40;3.93;;;;;;;;;;5087277;28;20020;-62
2022/11/06 08:21:21;;;;;;;3.17;2.73;;;;;;;;;;5091778;28;20029;-62
2022/11/06 08:23:47;;;;;;;6.10;3.03;;;;;;;;;;5091930;28;20356;-62
2022/11/06 08:26:14;;;;;;;4.90;2.57;;;;;;;;;;5091803;28;20511;-61
2022/11/06 08:28:41;;;;;;;4.43;2.73;;;;;;;;;;5094102;28;20039;-61
2022/11/06 08:31:08;;;;;;;5.43;3.97;;;;;;;;;;5094574;28;20067;-62
2022/11/06 08:33:36;;;;;;;6.07;2.80;;;;;;;;;;5090392;28;20023;-61
2022/11/06 08:36:04;;;;;;;2.93;2.50;;;;;;;;;;5090073;28;20028;-61
2022/11/06 08:38:30;;;;;;;4.30;3.10;;;;;;;;;;5090284;28;20034;-61
2022/11/06 08:40:57;;;;;;;6.63;4.07;;;;;;;;;;5090622;28;20171;-61
2022/11/06 08:43:25;;;;;;;3.80;3.23;;;;;;;;;;5095750;28;20024;-61
2022/11/06 08:45:52;;;;;;;4.30;3.27;;;;;;;;;;5095452;28;20038;-61
2022/11/06 08:48:19;;;;;;;3.83;3.00;;;;;;;;;;5095974;28;20020;-62
2022/11/06 08:50:45;;;;;;;2.30;1.97;;;;;;;;;;5095665;28;20031;-62
2022/11/06 08:53:12;;;;;;;5.97;3.47;;;;;;;;;;5094863;28;20122;-61
2022/11/06 08:55:39;;;;;;;8.63;4.43;;;;;;;;;;5089750;28;20386;-61
2022/11/06 08:58:06;;;;;;;4.03;2.83;;;;;;;;;;5090007;28;20028;-62
2022/11/06 09:00:33;;;;;;;4.57;3.20;;;;;;;;;;5089923;28;20020;-61
2022/11/06 09:03:01;;;;;;;4.70;3.43;;;;;;;;;;5089860;28;20038;-60
2022/11/06 09:05:28;;;;;;;4.70;3.10;;;;;;;;;;5094645;28;20039;-59
2022/11/06 09:07:56;;;;;;;5.37;3.77;;;;;;;;;;5095055;28;20031;-60
2022/11/06 09:10:22;;;;;;;3.77;3.13;;;;;;;;;;5094952;28;20024;-59
2022/11/06 09:12:49;;;;;;;4.80;3.47;;;;;;;;;;5095238;28;21807;-60
2022/11/06 09:15:16;;;;;;;2.93;2.47;;;;;;;;;;5095133;28;20062;-61
2022/11/06 09:17:46;;;;;;;4.80;3.27;;;;;;;;;;5089881;28;20530;-59
2022/11/06 09:20:13;;;;;;;7.90;3.37;;;;;;;;;;5089470;28;20364;-59
2022/11/06 09:22:40;;;;;;;3.83;2.57;;;;;;;;;;5089618;28;20032;-60
2022/11/06 09:25:07;;;;;;;4.80;3.73;;;;;;;;;;5089295;28;20378;-61
2022/11/06 09:27:40;;;;;;;3.30;2.53;;;;;;;;;;5093724;28;20047;-59
2022/11/06 09:30:07;;;;;;;3.23;2.33;;;;;;;;;;5094995;28;20498;-60
2022/11/06 09:32:34;;;;;;;3.77;2.83;;;;;;;;;;5094418;28;20020;-59
2022/11/06 09:35:01;;;;;;;6.70;4.13;;;;;;;;;;5094282;28;20374;-59
2022/11/06 09:37:27;;;;;;;4.33;2.57;;;;;;;;;;5094659;28;20549;-61
2022/11/06 09:39:54;;;;;;;4.63;2.43;;;;;;;;;;5089057;28;20028;-60
2022/11/06 09:42:39;;;;;;;6.23;3.23;;;;;;;;;;5089340;28;20190;-59
2022/11/06 09:45:14;;;;;;;2.90;2.42;;;;;;;;;;5089011;28;20027;-59
2022/11/06 09:47:43;;;;;;;2.70;2.03;;;;;;;;;;5089139;28;20036;-59
2022/11/06 09:50:16;;;;;;;4.53;2.77;;;;;;;;;;5093409;28;20032;-60
2022/11/06 09:52:43;;;;;;;17.03;2.57;;;;;;;;;;5093967;28;20024;-60
2022/11/06 09:55:14;;;;;;;3.97;2.90;;;;;;;;;;5094064;28;20108;-59
2022/11/06 09:57:49;;;;;;;6.73;2.90;;;;;;;;;;5094395;28;20474;-59
2022/11/06 10:00:16;;;;;;;4.43;3.25;;;;;;;;;;5094272;28;20020;-59
2022/11/06 10:02:49;;;;;;;2.70;2.00;;;;;;;;;;5088835;28;20347;-59
2022/11/06 10:05:24;;;;;;;3.90;2.70;;;;;;;;;;5088184;28;20536;-61
2022/11/06 10:07:52;;;;;;;1.60;1.40;;;;;;;;;;5088607;28;20032;-61
2022/11/06 10:10:20;;;;;;;3.20;1.93;;;;;;;;;;5088388;28;20023;-61
2022/11/06 10:12:47;;;;;;;4.27;3.17;;;;;;;;;;5094138;28;20376;-62
2022/11/06 10:15:16;;;;;;;2.30;1.87;;;;;;;;;;5093661;28;20039;-61
2022/11/06 10:18:03;;;;;;;5.00;2.03;;;;;;;;;;5094012;28;20020;-61
2022/11/06 10:20:36;;;;;;;3.10;1.77;;;;;;;;;;5093866;28;20108;-62
2022/11/06 10:23:26;;;;;;;2.47;1.80;;;;;;;;;;5092470;28;20035;-62
2022/11/06 10:26:04;;;;;;;3.57;2.87;;;;;;;;;;5060803;28;20044;-61
2022/11/06 10:28:33;;;;;;;2.50;2.13;;;;;;;;;;5088612;28;20057;-62
2022/11/06 10:31:20;;;;;;;2.10;1.90;;;;;;;;;;5068226;28;20055;-61
2022/11/06 10:34:02;;;;;;;5.13;2.87;;;;;;;;;;5065123;28;20056;-61
2022/11/06 10:36:31;;;;;;;2.00;1.80;;;;;;;;;;5081690;28;20035;-61
2022/11/06 10:38:59;;;;;;;3.07;2.30;;;;;;;;;;5093467;28;20028;-62
2022/11/06 10:41:34;;;;;;;3.57;2.63;;;;;;;;;;5093454;28;20023;-62
2022/11/06 10:44:20;;;;;;;1.73;1.27;;;;;;;;;;5093025;28;20046;-61
2022/11/06 10:46:49;;;;;;;4.50;3.07;;;;;;;;;;5072233;28;20168;-61
2022/11/06 10:49:23;;;;;;;3.23;2.20;;;;;;;;;;5088172;28;20035;-61
2022/11/06 10:51:50;;;;;;;1.80;1.50;;;;;;;;;;5086741;28;20103;-62
2022/11/06 10:54:27;;;;;;;3.50;2.53;;;;;;;;;;5087605;28;20024;-62
2022/11/06 10:56:53;;;;;;;3.07;2.23;;;;;;;;;;5092159;28;20387;-62
2022/11/06 10:59:20;;;;;;;4.00;2.90;;;;;;;;;;5092958;28;20022;-61
2022/11/06 11:01:47;;;;;;;6.10;3.30;;;;;;;;;;5093137;28;20032;-61
2022/11/06 11:04:13;;;;;;;2.97;2.43;;;;;;;;;;5092835;28;20028;-62
2022/11/06 11:06:40;;;;;;;3.73;2.47;;;;;;;;;;5092757;28;20101;-62
2022/11/06 11:09:27;;;;;;;11.07;2.60;;;;;;;;;;5088477;28;20505;-61
2022/11/06 11:11:54;;;;;;;4.30;2.63;;;;;;;;;;5087723;28;20068;-61
2022/11/06 11:14:28;;;;;;;4.70;3.03;;;;;;;;;;5087087;28;20024;-61
2022/11/06 11:16:55;;;;;;;5.33;2.77;;;;;;;;;;5087334;28;20057;-61
2022/11/06 11:19:42;;;;;;;2.80;2.20;;;;;;;;;;5091977;28;20027;-61
2022/11/06 11:22:12;;;;;;;5.00;3.23;;;;;;;;;;5092696;28;20453;-62
2022/11/06 11:24:57;;;;;;;4.20;2.73;;;;;;;;;;5092472;28;20093;-62
2022/11/06 11:27:24;;;;;;;;;;;;;;;;;;5093250;28;20032;-61
2022/11/06 11:29:50;;;;;;;3.20;2.53;;;;;;;;;;5091182;28;19969;-61
2022/11/06 11:32:18;;;;;;;4.57;3.07;;;;;;;;;;5087384;28;20028;-62
2022/11/06 11:34:46;;;;;;;5.73;2.73;;;;;;;;;;5086604;28;20103;-61
2022/11/06 11:37:34;;;;;;;5.83;3.30;;;;;;;;;;5087242;28;20024;-61
2022/11/06 11:40:21;;;;;;;3.77;2.13;;;;;;;;;;5071945;28;20024;-61
2022/11/06 11:42:48;;;;;;;5.03;3.23;;;;;;;;;;5092289;28;20040;-61
2022/11/06 11:45:21;;;;;;;5.13;4.00;;;;;;;;;;5092139;28;20098;-62
2022/11/06 11:47:50;;;;;;;5.03;2.93;;;;;;;;;;5092445;28;20478;-61
2022/11/06 11:50:16;;;;;;;4.60;3.47;;;;;;;;;;5091998;28;20028;-61
2022/11/06 11:52:44;;;;;;;7.83;2.97;;;;;;;;;;5089505;28;20028;-62
2022/11/06 11:55:16;;;;;;;3.33;2.30;;;;;;;;;;5086819;28;20235;-62
2022/11/06 11:57:44;;;;;;;3.83;2.73;;;;;;;;;;5086878;28;20028;-62
2022/11/06 12:00:16;;;;;;;5.53;2.37;;;;;;;;;;5086870;28;20040;-61
2022/11/06 12:02:44;;;;;;;1.83;1.40;;;;;;;;;;5087501;28;20054;-62
2022/11/06 12:05:18;;;;;;;3.60;2.93;;;;;;;;;;5091800;28;20024;-61
2022/11/06 12:07:48;;;;;;;4.18;3.08;;;;;;;;;;5091669;28;20127;-61
2022/11/06 12:10:20;;;;;;;3.60;2.80;;;;;;;;;;5092092;28;20107;-61
2022/11/06 12:12:48;;;;;;;2.70;2.20;;;;;;;;;;5091967;28;20100;-62
2022/11/06 12:15:20;;;;;;;3.37;2.50;;;;;;;;;;5089174;28;20036;-61
2022/11/06 12:17:50;;;;;;;4.67;2.70;;;;;;;;;;5086315;28;20073;-61
2022/11/06 12:20:23;;;;;;;4.03;2.27;;;;;;;;;;5086529;28;20397;-62
2022/11/06 12:22:50;;;;;;;6.37;3.77;;;;;;;;;;5086589;28;20029;-61
2022/11/06 12:25:23;;;;;;;2.63;2.07;;;;;;;;;;5088189;28;20086;-61
2022/11/06 12:27:55;;;;;;;3.70;2.53;;;;;;;;;;5091252;28;20439;-62
2022/11/06 12:30:21;;;;;;;3.77;2.57;;;;;;;;;;5091828;28;20020;-61
2022/11/06 12:33:11;;;;;;;3.80;2.53;;;;;;;;;;5092068;28;20086;-61
2022/11/06 12:35:40;;;;;;;3.23;2.57;;;;;;;;;;5091917;28;20100;-61
2022/11/06 12:38:10;;;;;;;4.00;2.90;;;;;;;;;;5086755;28;20031;-61
2022/11/06 12:40:41;;;;;;;3.37;2.50;;;;;;;;;;5085827;28;20099;-61
2022/11/06 12:43:14;;;;;;;3.50;2.97;;;;;;;;;;5086078;28;20370;-61
2022/11/06 12:45:41;;;;;;;8.30;3.30;;;;;;;;;;5086220;28;20125;-62
2022/11/06 12:48:13;;;;;;;3.20;2.60;;;;;;;;;;5089267;28;20040;-61
2022/11/06 12:50:51;;;;;;;9.53;3.90;;;;;;;;;;5091458;28;20024;-61
2022/11/06 12:53:21;;;;;;;9.00;2.50;;;;;;;;;;5091384;28;20035;-61
2022/11/06 12:55:55;;;;;;;2.67;2.43;;;;;;;;;;5091793;28;20032;-61
2022/11/06 12:58:34;;;;;;;4.83;3.53;;;;;;;;;;5091530;28;20024;-61
2022/11/06 13:01:21;;;;;;;3.37;2.77;;;;;;;;;;5085959;28;20082;-61
2022/11/06 13:04:06;;;;;;;3.83;2.60;;;;;;;;;;5034803;28;20036;-62
2022/11/06 13:06:51;;;;;;;3.60;2.42;;;;;;;;;;5066235;28;20036;-61
2022/11/06 13:09:21;;;;;;;6.20;2.72;;;;;;;;;;5071392;28;20442;-62
2022/11/06 13:11:57;;;;;;;2.90;2.43;;;;;;;;;;5091635;28;20028;-62
2022/11/06 13:14:36;;;;;;;5.57;2.97;;;;;;;;;;5093016;28;20370;-61
2022/11/06 13:17:09;;;;;;;3.37;2.80;;;;;;;;;;5094584;28;20123;-62
2022/11/06 13:19:46;;;;;;;5.37;3.53;;;;;;;;;;5094680;28;20028;-61
2022/11/06 13:22:13;;;;;;;6.33;3.80;;;;;;;;;;5092750;28;20063;-61
2022/11/06 13:24:58;;;;;;;4.87;3.87;;;;;;;;;;5089606;28;21394;-61
2022/11/06 13:27:27;;;;;;;8.52;5.22;;;;;;;;;;5090142;28;20036;-61
2022/11/06 13:29:57;;;;;;;9.13;5.50;;;;;;;;;;5089088;28;20537;-61
2022/11/06 13:32:24;;;;;;;4.90;3.73;;;;;;;;;;5091598;28;20070;-61
2022/11/06 13:34:53;;;;;;;4.93;3.60;;;;;;;;;;5094600;28;20111;-62
2022/11/06 13:37:23;;;;;;;5.30;3.60;;;;;;;;;;5094929;28;20052;-61
2022/11/06 13:39:53;;;;;;;7.77;3.47;;;;;;;;;;5094594;28;20052;-61
2022/11/06 13:42:26;;;;;;;4.13;3.23;;;;;;;;;;5095095;28;20471;-61
2022/11/06 13:44:54;;;;;;;7.53;3.73;;;;;;;;;;5091733;28;20103;-61
2022/11/06 13:47:43;;;;;;;3.57;2.77;;;;;;;;;;5088815;28;20063;-62
2022/11/06 13:50:13;;;;;;;4.23;3.50;;;;;;;;;;5075902;28;20040;-61
2022/11/06 13:53:12;;;;;;;3.83;3.27;;;;;;;;;;5088993;28;20028;-62
2022/11/06 13:55:47;;;;;;;4.87;3.57;;;;;;;;;;5038216;28;20491;-62
2022/11/06 13:58:24;;;;;;;4.90;3.30;;;;;;;;;;5094150;28;20028;-62
2022/11/06 14:00:59;;;;;;;3.73;2.97;;;;;;;;;;5094158;28;20016;-62
2022/11/06 14:03:45;;;;;;;3.93;2.67;;;;;;;;;;5094238;28;20016;-62
2022/11/06 14:06:11;;;;;;;;;;;;;;;;;;5093404;28;20171;-61
2022/11/06 14:08:43;;;;;;;5.07;3.43;;;;;;;;;;5088499;28;20034;-62
2022/11/06 14:11:17;;;;;;;10.87;3.60;;;;;;;;;;5088958;28;20028;-63
2022/11/06 14:13:57;;;;;;;5.90;3.05;;;;;;;;;;5088613;28;20470;-61
2022/11/06 14:16:25;;;;;;;6.07;4.13;;;;;;;;;;5089051;28;20020;-62
2022/11/06 14:19:02;;;;;;;5.37;3.97;;;;;;;;;;5093629;28;20118;-63
2022/11/06 14:21:42;;;;;;;6.13;4.27;;;;;;;;;;5094015;28;20059;-62
2022/11/06 14:24:15;;;;;;;8.83;3.80;;;;;;;;;;5093554;28;20035;-62
2022/11/06 14:26:45;;;;;;;5.20;3.50;;;;;;;;;;5093771;28;20184;-62
2022/11/06 14:29:27;;;;;;;4.57;3.73;;;;;;;;;;5090993;28;20047;-62
2022/11/06 14:32:00;;;;;;;10.63;4.40;;;;;;;;;;5088240;28;20027;-62
2022/11/06 14:34:28;;;;;;;7.27;4.07;;;;;;;;;;5087785;28;20058;-62
2022/11/06 14:36:54;;;;;;;6.53;4.57;;;;;;;;;;5088280;28;20511;-61
2022/11/06 14:39:39;;;;;;;6.60;4.40;;;;;;;;;;5090520;28;20509;-62
2022/11/06 14:42:06;;;;;;;;;;;;;;;;;;5093326;28;20089;-63
2022/11/06 14:44:34;;;;;;;6.87;3.77;;;;;;;;;;5093905;28;20278;-62
2022/11/06 14:47:03;;;;;;;4.80;3.33;;;;;;;;;;5093145;28;20036;-62
2022/11/06 14:49:42;;;;;;;9.17;3.77;;;;;;;;;;5092805;28;20020;-63
2022/11/06 14:52:13;;;;;;;4.10;2.73;;;;;;;;;;5089360;28;20024;-61
2022/11/06 14:54:42;;;;;;;6.83;4.07;;;;;;;;;;5082593;28;20391;-62
2022/11/06 14:57:12;;;;;;;9.23;3.20;;;;;;;;;;5078829;28;20028;-62
2022/11/06 14:59:40;;;;;;;3.63;2.77;;;;;;;;;;5081408;28;20024;-62
2022/11/06 15:02:13;;;;;;;5.37;3.03;;;;;;;;;;5086772;28;20028;-62
2022/11/06 15:05:03;;;;;;;4.97;3.10;;;;;;;;;;5075817;28;20085;-62
2022/11/06 15:07:39;;;;;;;4.27;2.87;;;;;;;;;;5090306;28;20039;-62
2022/11/06 15:10:09;;;;;;;5.77;3.20;;;;;;;;;;5093349;28;20024;-62
2022/11/06 15:12:55;;;;;;;7.33;3.87;;;;;;;;;;5084059;28;20585;-62
2022/11/06 15:15:22;;;;;;;6.70;3.77;;;;;;;;;;5070783;28;20502;-62
2022/11/06 15:17:48;;;;;;;4.70;2.90;;;;;;;;;;5081281;28;20036;-62
2022/11/06 15:20:21;;;;;;;5.63;3.47;;;;;;;;;;5072178;28;20483;-62
2022/11/06 15:22:56;;;;;;;5.27;2.77;;;;;;;;;;5068628;28;20032;-62
2022/11/06 15:25:24;;;;;;;4.88;3.20;;;;;;;;;;5091824;28;20020;-63
2022/11/06 15:27:56;;;;;;;6.37;3.70;;;;;;;;;;5090934;28;20036;-62
2022/11/06 15:30:23;;;;;;;3.70;2.43;;;;;;;;;;5092403;28;20032;-65